Maple Heights, Ohio
Current Conditions -  °F | °C
As of 3:53 PM on Tuesday 21 Oct 2014 (Local Time) from KBKL Reporting Station
Light Rain Light Rain  
Wind Chill: 50°   Ceiling: 1700
Heat Index: 50°   Visibility: 10mi
Dew Point: 45°   Wind: 23mph
Humidity: 83%   Direction: 310°NW
Pressure: 29.98"   Gusts: 30mph
Location:  41.41°N, 81.56°W
Report Text: KBKL 211953Z 31020G26KT 10SM -RA BKN017 OVC025 10/07 A2998 RMK AO2 PK WND 32027/1931 SLP152 P0000 T01000072
Loading
Personal Weather Stations






























Interactive Weather Map
Tropical Storm Tracking
New forecast layout! Learn more

10-Day Weather Forecast

Advertisements
Track Severe Weather on mobile